Time;durP1;ratioP1;P1;durP2;ratioP2;P2;SDS_P1;SDS_P2;PMS_P1;PMS_P2;Temp;Humidity;BMP_temperature;BMP_pressure;BME280_temperature;BME280_humidity;BME280_pressure;Samples;Min_cycle;Max_cycle;Signal;HPM_P1;HPM_P2
2021/09/16 00:01:07;;;;;;;12.50;6.97;;;;;;;18.24;100.00;100187.47;5021331;28;20139;-69
2021/09/16 00:03:51;;;;;;;7.72;6.70;;;;;;;18.21;100.00;100198.66;5007145;28;20122;-69
2021/09/16 00:06:35;;;;;;;9.85;6.97;;;;;;;18.22;100.00;100200.31;5035735;28;20053;-70
2021/09/16 00:09:19;;;;;;;10.90;7.57;;;;;;;18.23;100.00;100193.09;5020489;28;20064;-69
2021/09/16 00:12:03;;;;;;;11.05;6.95;;;;;;;18.21;100.00;100195.97;5035882;28;20051;-69
2021/09/16 00:14:47;;;;;;;21.40;8.23;;;;;;;18.20;100.00;100196.19;5020163;28;20428;-69
2021/09/16 00:17:31;;;;;;;11.60;8.32;;;;;;;18.20;100.00;100188.91;5020545;28;20407;-70
2021/09/16 00:20:15;;;;;;;13.65;7.60;;;;;;;18.17;100.00;100197.41;5020438;28;20107;-69
2021/09/16 00:22:59;;;;;;;12.70;7.45;;;;;;;18.19;100.00;100207.97;5035607;28;20075;-69
2021/09/16 00:25:43;;;;;;;8.50;6.80;;;;;;;18.18;100.00;100198.22;5020342;28;20049;-70
2021/09/16 00:28:27;;;;;;;16.95;7.95;;;;;;;18.18;100.00;100199.06;5006435;28;20072;-69
2021/09/16 00:31:11;;;;;;;12.32;7.72;;;;;;;18.17;100.00;100196.53;5035678;28;20174;-70
2021/09/16 00:33:55;;;;;;;11.65;7.63;;;;;;;18.17;100.00;100196.53;5020791;28;20063;-69
2021/09/16 00:36:40;;;;;;;9.60;7.93;;;;;;;18.15;100.00;100198.59;5020409;28;20115;-70
2021/09/16 00:39:23;;;;;;;12.45;8.27;;;;;;;18.14;100.00;100192.38;5020034;28;20095;-70
2021/09/16 00:42:08;;;;;;;13.02;8.05;;;;;;;18.15;100.00;100199.47;5006489;28;20056;-70
2021/09/16 00:44:52;;;;;;;13.85;8.90;;;;;;;18.14;100.00;100197.75;5020559;28;20095;-70
2021/09/16 00:47:39;;;;;;;15.48;8.65;;;;;;;18.18;100.00;100196.38;5019788;28;20049;-69
2021/09/16 00:50:24;;;;;;;15.93;8.93;;;;;;;18.17;100.00;100192.00;5019816;28;20474;-70
2021/09/16 00:53:09;;;;;;;12.90;8.63;;;;;;;18.18;100.00;100193.66;5020058;28;20403;-69
2021/09/16 00:55:54;;;;;;;15.52;8.70;;;;;;;18.15;100.00;100194.06;5020251;28;20045;-70
2021/09/16 00:58:39;;;;;;;11.05;8.55;;;;;;;18.13;100.00;100206.88;5019941;28;20551;-70
2021/09/16 01:01:23;;;;;;;13.38;8.80;;;;;;;18.11;100.00;100200.84;5006383;28;20087;-70
2021/09/16 01:04:07;;;;;;;15.10;9.15;;;;;;;18.12;100.00;100199.81;5019881;28;20055;-70
2021/09/16 01:06:51;;;;;;;14.73;9.25;;;;;;;18.10;100.00;100207.28;5019682;28;20099;-70
2021/09/16 01:09:36;;;;;;;11.52;9.07;;;;;;;18.13;100.00;100201.50;5034354;28;20107;-69
2021/09/16 01:12:20;;;;;;;9.63;8.02;;;;;;;18.14;100.00;100208.56;5019816;28;20500;-70
2021/09/16 01:15:05;;;;;;;21.52;9.20;;;;;;;18.09;100.00;100213.72;5034915;28;20092;-70
2021/09/16 01:17:49;;;;;;;10.73;8.50;;;;;;;18.12;100.00;100218.72;5019391;28;20096;-69
2021/09/16 01:20:33;;;;;;;17.48;8.13;;;;;;;18.10;100.00;100218.06;5005698;28;20051;-70
2021/09/16 01:23:18;;;;;;;14.57;8.23;;;;;;;18.07;100.00;100221.16;5005679;28;20059;-70
2021/09/16 01:26:02;;;;;;;9.35;7.65;;;;;;;18.09;100.00;100213.72;5004537;28;20423;-70
2021/09/16 01:28:46;;;;;;;13.00;8.45;;;;;;;18.06;100.00;100215.94;5034245;28;20057;-70
2021/09/16 01:31:44;;;;;;;16.02;9.57;;;;;;;18.05;100.00;100217.84;5019379;28;20055;-70
2021/09/16 01:34:28;;;;;;;11.82;8.50;;;;;;;18.09;100.00;100211.00;5005220;28;20461;-69
2021/09/16 01:37:12;;;;;;;15.73;9.13;;;;;;;18.09;100.00;100211.00;5034249;28;20103;-70
2021/09/16 01:39:56;;;;;;;17.52;8.75;;;;;;;18.10;100.00;100212.69;5019308;28;20048;-70
2021/09/16 01:42:41;;;;;;;14.07;8.48;;;;;;;18.11;100.00;100208.94;5018916;28;20053;-69
2021/09/16 01:45:27;;;;;;;12.70;7.65;;;;;;;18.08;100.00;100209.34;5019132;28;20103;-70
2021/09/16 01:48:11;;;;;;;13.88;7.75;;;;;;;18.06;100.00;100210.56;5019017;28;20132;-70
2021/09/16 01:50:55;;;;;;;10.88;7.43;;;;;;;18.05;100.00;100198.09;5019281;28;20056;-70
2021/09/16 01:53:39;;;;;;;12.30;8.55;;;;;;;18.03;100.00;100200.97;5033735;28;20151;-70
2021/09/16 01:56:23;;;;;;;14.73;7.90;;;;;;;18.01;100.00;100194.13;5019000;28;20448;-70
2021/09/16 01:59:06;;;;;;;17.05;8.80;;;;;;;18.02;100.00;100196.63;5018838;28;20091;-70
2021/09/16 02:01:50;;;;;;;15.63;7.75;;;;;;;18.00;100.00;100201.38;5018961;28;20407;-68
2021/09/16 02:04:34;;;;;;;15.13;8.10;;;;;;;18.04;100.00;100193.75;5033772;28;20052;-70
2021/09/16 02:07:18;;;;;;;14.00;8.20;;;;;;;18.11;100.00;100187.38;5018714;28;20578;-70
2021/09/16 02:10:03;;;;;;;13.40;7.72;;;;;;;18.05;100.00;100193.56;5018445;28;20116;-71
2021/09/16 02:12:47;;;;;;;14.20;7.25;;;;;;;18.00;100.00;100195.97;5018960;28;20212;-70
2021/09/16 02:15:31;;;;;;;11.00;7.05;;;;;;;18.01;100.00;100191.44;5018638;28;20103;-70
2021/09/16 02:18:15;;;;;;;9.77;6.97;;;;;;;18.02;100.00;100183.13;5062899;22;20137;-68
2021/09/16 02:20:59;;;;;;;11.75;7.18;;;;;;;17.96;100.00;100183.94;4979381;28;20069;-68
2021/09/16 02:23:43;;;;;;;10.18;7.07;;;;;;;17.94;100.00;100185.97;4994478;28;20109;-68
2021/09/16 02:26:27;;;;;;;10.35;7.57;;;;;;;17.96;100.00;100189.31;4979617;28;20068;-68
2021/09/16 02:29:11;;;;;;;11.70;7.60;;;;;;;17.93;100.00;100189.69;4988375;28;20053;-67
2021/09/16 02:31:55;;;;;;;9.43;7.15;;;;;;;17.92;100.00;100192.59;5013427;28;20076;-68
2021/09/16 02:34:39;;;;;;;15.48;8.27;;;;;;;17.88;100.00;100189.44;4998487;28;20057;-68
2021/09/16 02:37:23;;;;;;;12.85;9.20;;;;;;;17.91;100.00;100197.13;4998302;28;20049;-68
2021/09/16 02:40:09;;;;;;;14.32;9.23;;;;;;;17.94;100.00;100196.78;4998265;28;20049;-68
2021/09/16 02:42:53;;;;;;;18.35;9.95;;;;;;;17.96;100.00;100189.31;4998388;28;20408;-68
2021/09/16 02:45:37;;;;;;;18.48;9.30;;;;;;;18.00;100.00;100193.28;4998508;28;20076;-67
2021/09/16 02:48:21;;;;;;;19.15;9.25;;;;;;;18.01;100.00;100203.03;5013315;28;20045;-69
2021/09/16 02:51:05;;;;;;;15.57;8.48;;;;;;;18.02;100.00;100193.09;5013492;28;20053;-68
2021/09/16 02:53:49;;;;;;;13.65;7.93;;;;;;;17.96;100.00;100194.72;4985086;28;20104;-68
2021/09/16 02:56:33;;;;;;;13.05;7.95;;;;;;;18.00;100.00;100195.16;4998592;28;20518;-68
2021/09/16 02:59:17;;;;;;;12.77;8.90;;;;;;;18.01;100.00;100197.66;4998192;28;20612;-68
2021/09/16 03:02:01;;;;;;;;;;;;;;;18.04;100.00;100201.84;4998635;28;20133;-67
2021/09/16 03:04:45;;;;;;;22.63;10.17;;;;;;;18.09;100.00;100199.38;5012100;28;19964;-68
2021/09/16 03:07:29;;;;;;;18.42;10.15;;;;;;;18.10;100.00;100201.06;4998395;28;20366;-68
2021/09/16 03:10:13;;;;;;;17.23;10.07;;;;;;;18.09;100.00;100192.13;5012999;28;20053;-68
2021/09/16 03:12:57;;;;;;;18.75;10.10;;;;;;;18.10;100.00;100191.09;5013009;28;20107;-68
2021/09/16 03:15:41;;;;;;;31.42;15.68;;;;;;;18.12;100.00;100189.03;5013272;28;20065;-68
2021/09/16 03:18:24;;;;;;;31.65;19.17;;;;;;;18.02;100.00;100193.09;5012976;28;20068;-69
2021/09/16 03:21:08;;;;;;;40.58;22.85;;;;;;;17.95;100.00;100203.84;4998031;28;20416;-69
2021/09/16 03:23:52;;;;;;;54.40;24.67;;;;;;;17.88;100.00;100202.94;4998583;28;20057;-68
2021/09/16 03:26:36;;;;;;;52.10;27.00;;;;;;;17.88;100.00;100192.13;4998317;28;20088;-68
2021/09/16 03:29:20;;;;;;;;;;;;;;;17.78;100.00;100199.72;5013197;28;20479;-68
2021/09/16 03:32:05;;;;;;;49.65;30.48;;;;;;;17.72;100.00;100197.75;5013137;28;20331;-68
2021/09/16 03:34:49;;;;;;;59.05;31.48;;;;;;;17.72;100.00;100197.75;5013109;28;20053;-68
2021/09/16 03:37:33;;;;;;;54.28;31.50;;;;;;;17.66;100.00;100203.94;4984436;28;20080;-68
2021/09/16 03:40:17;;;;;;;75.15;34.17;;;;;;;17.65;100.00;100196.03;5012932;28;20052;-68
2021/09/16 03:43:01;;;;;;;61.63;33.30;;;;;;;17.64;100.00;100210.53;4984409;28;20416;-68
2021/09/16 03:45:45;;;;;;;56.50;33.83;;;;;;;17.62;100.00;100218.00;5012964;28;20052;-68
2021/09/16 03:48:29;;;;;;;75.60;36.45;;;;;;;17.57;100.00;100223.94;4998458;28;20263;-68
2021/09/16 03:51:13;;;;;;;62.60;34.83;;;;;;;17.56;100.00;100222.28;4988124;28;20408;-68
2021/09/16 03:53:57;;;;;;;57.15;34.60;;;;;;;17.50;100.00;100214.94;5016397;28;20092;-68
2021/09/16 03:56:41;;;;;;;;;;;;;;;17.44;100.00;100221.09;5001643;28;20084;-68
2021/09/16 03:59:25;;;;;;;69.68;37.25;;;;;;;17.44;100.00;100231.88;5001701;28;20279;-68
2021/09/16 04:02:09;;;;;;;67.85;36.15;;;;;;;17.43;100.00;100224.84;5001344;28;20049;-68
2021/09/16 04:04:52;;;;;;;61.20;36.53;;;;;;;17.40;100.00;100238.66;5001373;28;20408;-68
2021/09/16 04:07:36;;;;;;;;;;;;;;;17.38;100.00;100229.94;5016547;28;20100;-69
2021/09/16 04:10:20;;;;;;;60.83;34.13;;;;;;;17.35;100.00;100227.63;5014854;28;19924;-68
2021/09/16 04:13:07;;;;;;;66.85;36.22;;;;;;;17.34;100.00;100230.47;4987443;28;20526;-68
2021/09/16 04:15:51;;;;;;;66.35;36.53;;;;;;;17.30;100.00;100243.47;5001124;28;20049;-68
2021/09/16 04:18:35;;;;;;;66.57;36.63;;;;;;;17.27;100.00;100238.47;5015691;28;20048;-67
2021/09/16 04:21:19;;;;;;;69.28;36.95;;;;;;;17.28;100.00;100244.72;4987003;28;20045;-68
2021/09/16 04:24:03;;;;;;;60.10;35.08;;;;;;;17.23;100.00;100241.72;5001265;28;20084;-68
2021/09/16 04:26:48;;;;;;;77.75;36.85;;;;;;;17.17;100.00;100243.31;4987200;28;20180;-68
2021/09/16 04:29:32;;;;;;;56.25;34.75;;;;;;;17.14;100.00;100241.00;5000763;28;20045;-68
2021/09/16 04:32:15;;;;;;;68.75;36.55;;;;;;;17.10;100.00;100250.44;4987090;28;20065;-69
2021/09/16 04:34:59;;;;;;;60.88;35.08;;;;;;;17.10;100.00;100253.16;5000788;28;20096;-68
2021/09/16 04:37:43;;;;;;;63.60;36.97;;;;;;;17.08;100.00;100247.13;5000470;28;20048;-68
2021/09/16 04:40:27;;;;;;;86.85;40.25;;;;;;;17.07;100.00;100247.28;5015554;28;20056;-68
2021/09/16 04:43:11;;;;;;;108.78;42.58;;;;;;;17.11;100.00;100245.91;5000584;28;20077;-69
2021/09/16 04:45:55;;;;;;;71.95;38.10;;;;;;;17.08;100.00;100252.50;5000696;28;20084;-68
2021/09/16 04:48:39;;;;;;;64.80;37.25;;;;;;;17.10;100.00;100255.84;5000362;28;20045;-68
2021/09/16 04:51:24;;;;;;;63.95;35.72;;;;;;;17.10;100.00;100258.53;5000323;28;20527;-69
2021/09/16 04:54:08;;;;;;;75.72;38.38;;;;;;;17.08;100.00;100262.47;5000067;28;20052;-68
2021/09/16 04:56:52;;;;;;;66.60;37.38;;;;;;;17.06;100.00;100265.31;5015436;28;20137;-68
2021/09/16 04:59:36;;;;;;;94.18;38.90;;;;;;;17.07;100.00;100263.44;4986669;28;20096;-68
2021/09/16 05:02:20;;;;;;;104.90;41.28;;;;;;;17.07;100.00;100269.69;5015108;28;20073;-68
2021/09/16 05:05:05;;;;;;;87.60;40.08;;;;;;;17.08;100.00;100274.03;5000261;28;20092;-68
2021/09/16 05:07:49;;;;;;;102.13;41.90;;;;;;;17.08;100.00;100274.03;5000355;28;20515;-68
2021/09/16 05:10:33;;;;;;;64.47;36.92;;;;;;;17.06;100.00;100276.09;4999870;28;20615;-68
2021/09/16 05:13:17;;;;;;;68.93;35.38;;;;;;;17.04;100.00;100277.28;4986169;28;20049;-67
2021/09/16 05:16:01;;;;;;;74.32;36.35;;;;;;;17.04;100.00;100274.59;4999762;28;20100;-69
2021/09/16 05:18:45;;;;;;;70.95;36.22;;;;;;;17.01;100.00;100278.50;5014421;28;20111;-68
2021/09/16 05:21:28;;;;;;;92.22;39.83;;;;;;;16.99;100.00;100280.53;4999779;28;20098;-68
2021/09/16 05:24:18;;;;;;;93.80;41.95;;;;;;;16.99;100.00;100283.22;4999621;28;20065;-68
2021/09/16 05:27:03;;;;;;;78.40;38.67;;;;;;;17.03;100.00;100283.72;5000664;28;20092;-68
2021/09/16 05:29:46;;;;;;;82.93;39.30;;;;;;;16.98;100.00;100281.56;4999450;28;20056;-66
2021/09/16 05:32:30;;;;;;;85.57;39.05;;;;;;;16.99;100.00;100279.72;4999389;28;20131;-68
2021/09/16 05:35:14;;;;;;;79.25;38.00;;;;;;;16.95;100.00;100281.09;4999602;28;20048;-68
2021/09/16 05:37:59;;;;;;;;;;;;;;;16.95;100.00;100281.94;5014579;28;20423;-67
2021/09/16 05:40:43;;;;;;;68.22;34.67;;;;;;;16.93;100.00;100275.91;5013495;28;19979;-68
2021/09/16 05:43:27;;;;;;;;;;;;;;;16.92;100.00;100284.16;4999881;28;20162;-68
2021/09/16 05:46:11;;;;;;;62.78;35.60;;;;;;;16.94;100.00;100282.97;4999158;28;19936;-67
2021/09/16 05:48:55;;;;;;;62.80;32.95;;;;;;;16.92;100.00;100290.41;4999015;28;20048;-68
2021/09/16 05:51:39;;;;;;;68.63;32.53;;;;;;;16.92;100.00;100301.16;4999668;28;20104;-68
2021/09/16 05:54:23;;;;;;;54.67;31.20;;;;;;;16.90;100.00;100300.50;4999264;28;20108;-68
2021/09/16 05:57:06;;;;;;;59.78;31.67;;;;;;;16.90;100.00;100297.81;4985319;28;20052;-68
2021/09/16 05:59:50;;;;;;;68.13;28.90;;;;;;;16.92;100.00;100311.94;4998952;28;20045;-69
2021/09/16 06:02:34;;;;;;;71.97;32.20;;;;;;;16.86;100.00;100303.72;4998945;28;20053;-68
2021/09/16 06:05:19;;;;;;;50.70;30.52;;;;;;;16.84;100.00;100309.31;4998985;28;20125;-68
2021/09/16 06:08:03;;;;;;;46.17;27.63;;;;;;;16.82;100.00;100311.38;5013589;28;20048;-69
2021/09/16 06:10:46;;;;;;;46.55;28.45;;;;;;;16.82;100.00;100319.44;4998986;28;20056;-69
2021/09/16 06:13:30;;;;;;;59.33;28.75;;;;;;;16.84;100.00;100324.63;4999198;28;20049;-69
2021/09/16 06:16:14;;;;;;;47.67;27.63;;;;;;;16.73;100.00;100328.63;4998990;28;20048;-67
2021/09/16 06:18:58;;;;;;;;;;;;;;;16.67;100.00;100334.72;5000513;28;20096;-68
2021/09/16 06:21:43;;;;;;;43.60;26.13;;;;;;;16.69;100.00;100337.22;4998962;28;20438;-68
2021/09/16 06:24:27;;;;;;;58.08;29.33;;;;;;;16.70;100.00;100347.78;5012466;28;20057;-68
2021/09/16 06:27:11;;;;;;;42.85;26.88;;;;;;;16.65;100.00;100350.22;4998628;28;20081;-68
2021/09/16 06:29:55;;;;;;;56.22;27.67;;;;;;;16.57;100.00;100347.59;5012377;28;20092;-68
2021/09/16 06:32:39;;;;;;;48.28;27.88;;;;;;;16.55;100.00;100352.31;4998535;28;20061;-68
2021/09/16 06:35:22;;;;;;;50.83;27.98;;;;;;;16.50;100.00;100360.06;5012697;28;20053;-68
2021/09/16 06:38:06;;;;;;;;;;;;;;;16.52;100.00;100368.81;4999102;28;20048;-69
2021/09/16 06:40:50;;;;;;;55.30;29.83;;;;;;;16.54;100.00;100376.69;5012643;28;20315;-67
2021/09/16 06:43:34;;;;;;;54.40;29.80;;;;;;;16.49;100.00;100371.03;4998730;28;20175;-69
2021/09/16 06:46:18;;;;;;;47.67;28.98;;;;;;;16.45;100.00;100370.56;5012557;28;20563;-68
2021/09/16 06:49:02;;;;;;;61.60;31.48;;;;;;;16.43;100.00;100372.59;5012300;28;20527;-68
2021/09/16 06:51:46;;;;;;;66.47;30.85;;;;;;;16.47;100.00;100381.97;5012251;28;20144;-69
2021/09/16 06:54:31;;;;;;;60.15;31.23;;;;;;;16.44;100.00;100384.19;4998395;28;20100;-68
2021/09/16 06:57:15;;;;;;;52.28;29.52;;;;;;;16.46;100.00;100388.38;5012160;28;20468;-68
2021/09/16 06:59:59;;;;;;;65.15;31.67;;;;;;;16.48;100.00;100389.03;5012073;28;20100;-69
2021/09/16 07:02:48;;;;;;;61.15;32.83;;;;;;;16.49;100.00;100390.69;5013405;28;20124;-67
2021/09/16 07:05:32;;;;;;;59.08;30.58;;;;;;;16.53;100.00;100389.34;5012213;28;20515;-69
2021/09/16 07:08:16;;;;;;;62.03;31.65;;;;;;;16.51;100.00;100394.06;5012220;28;20096;-69
2021/09/16 07:11:00;;;;;;;70.75;33.08;;;;;;;16.53;100.00;100391.19;5013345;28;20052;-68
2021/09/16 07:13:44;;;;;;;61.92;32.28;;;;;;;16.50;100.00;100395.06;4998189;28;20053;-68
2021/09/16 07:16:27;;;;;;;;;;;;;;;16.51;100.00;100399.44;5012447;28;20473;-68
2021/09/16 07:19:11;;;;;;;70.32;31.67;;;;;;;16.54;100.00;100404.47;5012956;28;19939;-67
2021/09/16 07:21:58;;;;;;;79.53;35.22;;;;;;;16.59;100.00;100402.06;4998192;28;20420;-68
2021/09/16 07:24:42;;;;;;;67.05;32.10;;;;;;;16.54;100.00;100412.53;5000791;28;20045;-69
2021/09/16 07:27:26;;;;;;;68.47;33.30;;;;;;;16.55;100.00;100406.13;5002085;28;20056;-68
2021/09/16 07:30:11;;;;;;;82.05;34.22;;;;;;;16.58;100.00;100411.16;4988419;28;20400;-69
2021/09/16 07:32:55;;;;;;;64.28;31.98;;;;;;;16.55;100.00;100411.53;5001978;28;20562;-68
2021/09/16 07:35:39;;;;;;;;;;;;;;;16.55;100.00;100416.91;5002395;28;20072;-68
2021/09/16 07:38:23;;;;;;;72.88;31.35;;;;;;;16.58;100.00;100421.91;5001717;28;19960;-69
2021/09/16 07:41:07;;;;;;;75.10;32.00;;;;;;;16.59;100.00;100428.97;5001633;28;20530;-69
2021/09/16 07:43:51;;;;;;;96.38;32.47;;;;;;;16.62;100.00;100427.78;5016377;28;20044;-68
2021/09/16 07:46:35;;;;;;;79.90;32.20;;;;;;;16.65;100.00;100440.88;5016288;28;20131;-68
2021/09/16 07:49:19;;;;;;;62.40;31.92;;;;;;;16.72;100.00;100440.00;5016226;28;20095;-68
2021/09/16 07:52:04;;;;;;;60.92;30.85;;;;;;;16.73;100.00;100439.00;4988174;28;20108;-69
2021/09/16 07:54:48;;;;;;;71.57;31.77;;;;;;;16.81;100.00;100438.94;4987856;28;20044;-68
2021/09/16 07:57:32;;;;;;;68.20;30.20;;;;;;;16.87;100.00;100448.97;5001272;28;20049;-69
2021/09/16 08:00:16;;;;;;;76.45;33.08;;;;;;;16.96;100.00;100445.19;5001136;28;20056;-69
2021/09/16 08:03:00;;;;;;;81.18;32.42;;;;;;;17.06;100.00;100453.88;4987650;28;20052;-68
2021/09/16 08:05:44;;;;;;;82.72;31.73;;;;;;;17.16;100.00;100457.16;5001116;28;20081;-68
2021/09/16 08:08:28;;;;;;;56.70;28.33;;;;;;;17.18;100.00;100454.28;5001255;28;20049;-69
2021/09/16 08:11:12;;;;;;;74.03;29.45;;;;;;;17.20;100.00;100455.75;5015750;28;20431;-69
2021/09/16 08:13:56;;;;;;;62.85;29.77;;;;;;;17.23;100.00;100468.03;5001179;28;20056;-68
2021/09/16 08:16:41;;;;;;;64.78;27.70;;;;;;;17.24;100.00;100472.41;4987174;28;20523;-66
2021/09/16 08:19:25;;;;;;;61.00;25.75;;;;;;;17.22;100.00;100482.53;5007232;28;20205;-68
2021/09/16 08:22:09;;;;;;;77.18;29.80;;;;;;;17.21;100.00;100476.28;5000806;28;20500;-68
2021/09/16 08:24:53;;;;;;;51.75;28.60;;;;;;;17.27;100.00;100475.56;5014938;28;20048;-69
2021/09/16 08:27:37;;;;;;;68.82;28.02;;;;;;;17.30;100.00;100475.19;5015513;28;20184;-69
2021/09/16 08:30:21;;;;;;;51.30;27.52;;;;;;;17.35;100.00;100475.53;5014366;28;20036;-68
2021/09/16 08:33:05;;;;;;;40.45;26.05;;;;;;;17.40;100.00;100494.69;5000830;28;20084;-69
2021/09/16 08:35:49;;;;;;;48.53;25.52;;;;;;;17.41;100.00;100488.28;5000556;28;20096;-67
2021/09/16 08:38:33;;;;;;;42.58;25.60;;;;;;;17.49;100.00;100492.78;5014281;28;20077;-69
2021/09/16 08:41:17;;;;;;;53.10;26.70;;;;;;;17.57;100.00;100490.81;5014275;28;20144;-68
2021/09/16 08:44:03;;;;;;;42.58;25.48;;;;;;;17.66;100.00;100487.03;5014281;28;20053;-68
2021/09/16 08:46:47;;;;;;;37.63;25.08;;;;;;;17.72;100.00;100485.47;5015667;28;20048;-69
2021/09/16 08:49:31;;;;;;;33.75;25.13;;;;;;;17.79;100.00;100489.09;5014938;28;20040;-69
2021/09/16 08:52:15;;;;;;;34.08;23.25;;;;;;;17.75;100.00;100482.38;5015071;28;20073;-69
2021/09/16 08:55:00;;;;;;;30.90;22.52;;;;;;;17.66;100.00;100492.41;5014288;28;20048;-68
2021/09/16 08:57:47;;;;;;;28.30;20.63;;;;;;;17.64;100.00;100499.88;5000430;28;20139;-69
2021/09/16 09:00:32;;;;;;;33.97;22.70;;;;;;;17.67;100.00;100490.53;5014968;28;20147;-69
2021/09/16 09:03:16;;;;;;;30.73;21.52;;;;;;;17.54;100.00;100491.19;5014915;28;20048;-67
2021/09/16 09:05:59;;;;;;;34.42;23.38;;;;;;;17.60;100.00;100503.94;5000301;28;20515;-69
2021/09/16 09:08:43;;;;;;;33.92;24.23;;;;;;;17.69;100.00;100502.84;5000103;28;20049;-69
2021/09/16 09:11:27;;;;;;;28.25;20.98;;;;;;;17.71;100.00;100505.34;5013983;28;20061;-69
2021/09/16 09:14:17;;;;;;;24.33;18.25;;;;;;;17.72;100.00;100505.16;5014729;28;20053;-68
2021/09/16 09:17:02;;;;;;;24.23;16.35;;;;;;;17.68;100.00;100503.84;5014130;28;20108;-68
2021/09/16 09:19:48;;;;;;;23.88;17.50;;;;;;;17.67;100.00;100512.97;5013547;28;20519;-67
2021/09/16 09:22:37;;;;;;;29.70;17.92;;;;;;;17.62;100.00;100509.97;5013490;28;20479;-69
2021/09/16 09:25:24;;;;;;;21.30;16.30;;;;;;;17.75;100.00;100504.81;5013620;28;20063;-68
2021/09/16 09:28:08;;;;;;;24.40;15.45;;;;;;;17.81;100.00;100503.22;5013594;28;20056;-69
2021/09/16 09:30:52;;;;;;;25.65;15.35;;;;;;;17.99;100.00;100500.97;4999926;28;20100;-69
2021/09/16 09:33:35;;;;;;;22.55;15.27;;;;;;;18.09;100.00;100507.78;5013404;28;20076;-69
2021/09/16 09:36:22;;;;;;;21.90;13.82;;;;;;;18.22;100.00;100510.66;5014595;28;20056;-69
2021/09/16 09:39:06;;;;;;;20.83;15.13;;;;;;;18.23;100.00;100509.63;5013580;28;20051;-69
2021/09/16 09:41:50;;;;;;;19.35;14.48;;;;;;;18.35;100.00;100515.44;5014437;28;20129;-69
2021/09/16 09:44:35;;;;;;;19.23;12.88;;;;;;;18.30;100.00;100518.69;4999572;28;20096;-68
2021/09/16 09:47:39;;;;;;;19.20;13.02;;;;;;;18.29;100.00;100519.72;5013326;28;20048;-68
2021/09/16 09:50:25;;;;;;;18.37;14.20;;;;;;;18.21;100.00;100521.66;4999081;28;20033;-68
2021/09/16 09:53:14;;;;;;;17.15;14.50;;;;;;;18.22;100.00;100518.75;5013470;28;20053;-69
2021/09/16 09:55:57;;;;;;;20.23;12.93;;;;;;;18.23;100.00;100515.03;5012825;28;20081;-69
2021/09/16 09:58:42;;;;;;;21.48;13.13;;;;;;;18.30;100.00;100516.00;5012863;28;20053;-68
2021/09/16 10:01:30;;;;;;;14.65;10.90;;;;;;;18.14;100.00;100510.75;5012875;28;20122;-68
2021/09/16 10:04:26;;;;;;;15.60;11.27;;;;;;;18.14;100.00;100515.31;4998869;28;20420;-68
2021/09/16 10:07:26;;;;;;;17.55;11.27;;;;;;;18.26;100.00;100524.63;5012804;28;20053;-67
2021/09/16 10:10:11;;;;;;;21.23;11.48;;;;;;;18.38;100.00;100523.16;5012474;28;20044;-69
2021/09/16 10:12:55;;;;;;;17.92;11.18;;;;;;;18.61;100.00;100525.53;5026876;28;20049;-69
2021/09/16 10:15:39;;;;;;;17.25;12.27;;;;;;;18.83;100.00;100513.75;5012932;28;20566;-69
2021/09/16 10:18:23;;;;;;;16.77;12.23;;;;;;;19.00;100.00;100517.03;4998794;28;20535;-69
2021/09/16 10:21:07;;;;;;;14.93;10.43;;;;;;;19.34;100.00;100517.19;4999180;28;20072;-69
2021/09/16 10:23:55;;;;;;;14.75;9.93;;;;;;;19.58;100.00;100512.22;5013887;28;20064;-67
2021/09/16 10:26:42;;;;;;;16.80;9.57;;;;;;;19.75;100.00;100515.47;4985246;28;20523;-69
2021/09/16 10:29:26;;;;;;;13.55;9.57;;;;;;;19.93;100.00;100518.50;4998616;28;20048;-68
2021/09/16 10:32:10;;;;;;;14.13;9.35;;;;;;;20.13;100.00;100509.50;5013460;28;20103;-68
2021/09/16 10:34:58;;;;;;;;;;;;;;;20.17;100.00;100504.50;5014135;28;20107;-68
2021/09/16 10:37:43;;;;;;;17.10;10.45;;;;;;;20.54;98.21;100512.22;5012654;28;19959;-68
2021/09/16 10:40:33;;;;;;;13.95;8.77;;;;;;;20.83;96.51;100517.31;4998434;28;20120;-68
2021/09/16 10:43:22;;;;;;;10.45;8.07;;;;;;;21.08;94.92;100508.44;4998725;28;20057;-69
2021/09/16 10:46:32;;;;;;;14.75;8.60;;;;;;;21.14;95.30;100509.50;4998512;28;20072;-68
2021/09/16 10:49:19;;;;;;;9.25;8.32;;;;;;;21.69;91.44;100507.28;5013371;28;20049;-69
2021/09/16 10:52:09;;;;;;;12.07;7.65;;;;;;;22.60;89.32;100499.75;4998701;28;20566;-69
2021/09/16 10:54:55;;;;;;;9.65;7.75;;;;;;;23.41;82.90;100504.28;5013509;28;20566;-68
2021/09/16 10:57:39;;;;;;;14.43;8.63;;;;;;;25.20;71.61;100500.84;4999185;28;20049;-69
2021/09/16 11:00:23;;;;;;;12.77;7.50;;;;;;;25.65;67.16;100498.44;5002278;28;20545;-69
2021/09/16 11:03:07;;;;;;;;;;;;;;;25.46;64.07;100502.31;5016748;28;20471;-69
2021/09/16 11:05:53;;;;;;;11.35;6.30;;;;;;;25.46;64.61;100499.59;5002799;28;19960;-69
2021/09/16 11:08:59;;;;;;;8.52;6.20;;;;;;;25.54;65.53;100499.25;5002139;28;20518;-69
2021/09/16 11:11:54;;;;;;;11.32;6.43;;;;;;;25.34;64.31;100494.09;4988950;28;20400;-69
2021/09/16 11:14:40;;;;;;;9.48;6.65;;;;;;;24.82;65.35;100496.75;5002226;28;20424;-70
2021/09/16 11:17:26;;;;;;;8.57;6.80;;;;;;;24.35;67.90;100501.09;5002199;28;20088;-69
2021/09/16 11:20:13;;;;;;;8.10;7.30;;;;;;;23.76;70.98;100508.16;5012889;28;20064;-70
2021/09/16 11:22:56;;;;;;;7.80;6.88;;;;;;;23.40;69.86;100499.06;5016031;28;20119;-70
2021/09/16 11:25:47;;;;;;;11.50;6.80;;;;;;;22.97;71.90;100504.38;5016899;28;20403;-70
2021/09/16 11:28:31;;;;;;;8.55;7.05;;;;;;;22.67;75.69;100495.13;5016526;28;20045;-70
2021/09/16 11:31:18;;;;;;;10.63;7.15;;;;;;;22.75;75.81;100491.31;5015898;28;20057;-70
2021/09/16 11:34:08;;;;;;;11.35;7.90;;;;;;;22.81;75.67;100502.13;5015963;28;20095;-70
2021/09/16 11:37:05;;;;;;;13.63;8.40;;;;;;;23.11;70.89;100497.78;5015791;28;20463;-69
2021/09/16 11:40:02;;;;;;;10.75;8.15;;;;;;;23.66;71.00;100496.13;5015663;28;20048;-69
2021/09/16 11:42:49;;;;;;;9.30;7.88;;;;;;;23.88;70.77;100491.97;5016691;28;20051;-69
2021/09/16 11:45:34;;;;;;;10.57;7.95;;;;;;;24.10;70.68;100499.50;5015661;28;20577;-70
2021/09/16 11:48:23;;;;;;;11.18;8.18;;;;;;;24.15;69.66;100496.91;5015460;28;20091;-70
2021/09/16 11:51:07;;;;;;;9.95;8.18;;;;;;;23.94;69.58;100491.91;5015499;28;20099;-70
2021/09/16 11:53:51;;;;;;;;;;;;;;;24.08;69.88;100503.50;5015880;28;20100;-68
2021/09/16 11:56:35;;;;;;;10.60;7.18;;;;;;;24.00;69.73;100493.75;5015500;28;19919;-69
2021/09/16 11:59:19;;;;;;;;;;;;;;;23.89;69.82;100486.31;5016724;28;20408;-70
2021/09/16 12:02:03;;;;;;;11.65;7.63;;;;;;;24.15;67.46;100491.47;5015618;28;20383;-70
2021/09/16 12:04:48;;;;;;;12.30;8.18;;;;;;;24.87;65.78;100491.44;5016296;28;20507;-70
2021/09/16 12:07:33;;;;;;;9.35;6.95;;;;;;;25.20;62.32;100491.81;5001599;28;20053;-70
2021/09/16 12:10:16;;;;;;;;;;;;;;;25.19;60.46;100495.56;5014646;28;20052;-70
2021/09/16 12:13:00;;;;;;;9.50;6.05;;;;;;;25.33;62.16;100491.63;5015188;28;20430;-70
2021/09/16 12:15:45;;;;;;;;;;;;;;;25.58;60.36;100494.97;5016528;28;20123;-70
2021/09/16 12:18:29;;;;;;;;;;;;;;;25.70;59.25;100485.72;5015431;28;19920;-70
2021/09/16 12:21:22;;;;;;;9.82;6.93;;;;;;;25.75;62.44;100493.22;5015041;28;19963;-70
2021/09/16 12:24:14;;;;;;;11.95;6.40;;;;;;;25.71;60.87;100489.31;4986935;28;20570;-70
2021/09/16 12:26:58;;;;;;;7.15;5.90;;;;;;;25.61;58.51;100489.06;5015817;28;20416;-70
2021/09/16 12:29:42;;;;;;;9.75;6.10;;;;;;;25.32;60.28;100489.97;5000726;28;20460;-68
2021/09/16 12:32:29;;;;;;;;;;;;;;;25.17;60.79;100484.06;5015961;28;20048;-70